Time;durP1;ratioP1;P1;durP2;ratioP2;P2;SDS_P1;SDS_P2;PMS_P1;PMS_P2;Temp;Humidity;BMP_temperature;BMP_pressure;BME280_temperature;BME280_humidity;BME280_pressure;Samples;Min_cycle;Max_cycle;Signal;HPM_P1;HPM_P2
2022/05/09 00:01:57;;;;;;;;;;;;;;;;;;6139849;23;20386;-55
2022/05/09 00:04:22;;;;;;;;;;;;;;;;;;6241496;22;19947;-57
2022/05/09 00:06:50;;;;;;;;;;;;;;;;;;6139300;23;19980;-55
2022/05/09 00:09:15;;;;;;;;;;;;;;;;;;6207599;23;20460;-54
2022/05/09 00:11:41;;;;;;;;;;;;;;;;;;6230963;22;19913;-54
2022/05/09 00:14:08;;;;;;;;;;;;;;;;;;6127384;23;20332;-55
2022/05/09 00:16:36;;;;;;;;;;;;;;;;;;6139865;23;19948;-56
2022/05/09 00:19:03;;;;;;;;;;;;;;;;;;6205896;22;19926;-56
2022/05/09 00:21:31;;;;;;;;;;;;;;;;;;6243334;22;20620;-54
2022/05/09 00:23:57;;;;;;;;;;;;;;;;;;6139996;23;20570;-55
2022/05/09 00:26:22;;;;;;;;;;;;;;;;;;6137010;23;19913;-55
2022/05/09 00:28:50;;;;;;;;;;;;;;;;;;6139982;23;20671;-55
2022/05/09 00:31:18;;;;;;;;;;;;;;;;;;6138623;23;19909;-55
2022/05/09 00:33:45;;;;;;;;;;;;;;;;;;6238918;22;20717;-54
2022/05/09 00:36:11;;;;;;;;;;;;;;;;;;6242025;22;19916;-54
2022/05/09 00:38:38;;;;;;;;;;;;;;;;;;6208101;23;19943;-56
2022/05/09 00:43:56;;;;;;;;;;;;;;;;;;6231308;22;19920;-57
2022/05/09 00:46:24;;;;;;;;;;;;;;;;;;6127364;23;19913;-56
2022/05/09 00:48:52;;;;;;;;;;;;;;;;;;6203656;22;19909;-57
2022/05/09 00:51:18;;;;;;;;;;;;;;;;;;6130401;23;19917;-56
2022/05/09 00:53:46;;;;;;;;;;;;;;;;;;6240033;22;19917;-55
2022/05/09 00:56:11;;;;;;;;;;;;;;;;;;6130273;22;19920;-56
2022/05/09 00:58:38;;;;;;;;;;;;;;;;;;6129039;23;19908;-57
2022/05/09 01:01:03;;;;;;;;;;;;;;;;;;6138830;23;19920;-56
2022/05/09 01:03:31;;;;;;;;;;;;;;;;;;6231762;22;19923;-56
2022/05/09 01:05:57;;;;;;;;;;;;;;;;;;6127213;23;20623;-57
2022/05/09 01:08:25;;;;;;;;;;;;;;;;;;6130381;23;19913;-57
2022/05/09 01:10:52;;;;;;;;;;;;;;;;;;6141059;23;20437;-57
2022/05/09 01:13:20;;;;;;;;;;;;;;;;;;6242551;22;19912;-57
2022/05/09 01:15:45;;;;;;;;;;;;;;;;;;6242700;22;20343;-55
2022/05/09 01:18:14;;;;;;;;;;;;;;;;;;6231445;22;19955;-56
2022/05/09 01:20:39;;;;;;;;;;;;;;;;;;6231053;22;20313;-55
2022/05/09 01:23:09;;;;;;;;;;;;;;;;;;6230825;22;20478;-55
2022/05/09 01:25:37;;;;;;;;;;;;;;;;;;6138920;23;19916;-56
2022/05/09 01:28:04;;;;;;;;;;;;;;;;;;6206596;23;20522;-55
2022/05/09 01:30:33;;;;;;;;;;;;;;;;;;6206801;22;19916;-54
2022/05/09 01:32:58;;;;;;;;;;;;;;;;;;6242571;22;20746;-57
2022/05/09 01:35:26;;;;;;;;;;;;;;;;;;6231037;22;19974;-55
2022/05/09 01:37:51;;;;;;;;;;;;;;;;;;6138171;23;20703;-55
2022/05/09 01:40:17;;;;;;;;;;;;;;;;;;6139649;23;20411;-55
2022/05/09 01:42:42;;;;;;;;;;;;;;;;;;6129621;23;20015;-55
2022/05/09 01:45:07;;;;;;;;;;;;;;;;;;6242637;22;19913;-56
2022/05/09 01:50:23;;;;;;;;;;;;;;;;;;6233358;22;19913;-55
2022/05/09 01:52:53;;;;;;;;;;;;;;;;;;6131236;23;20240;-55
2022/05/09 01:55:18;;;;;;;;;;;;;;;;;;6142707;23;19920;-55
2022/05/09 01:57:44;;;;;;;;;;;;;;;;;;6234137;22;20446;-56
2022/05/09 02:00:12;;;;;;;;;;;;;;;;;;6231256;22;19909;-56
2022/05/09 02:02:39;;;;;;;;;;;;;;;;;;6230869;22;20400;-55
2022/05/09 02:05:04;;;;;;;;;;;;;;;;;;6233225;22;20514;-55
2022/05/09 02:07:31;;;;;;;;;;;;;;;;;;6139455;23;19917;-55
2022/05/09 02:10:00;;;;;;;;;;;;;;;;;;6232645;22;19936;-55
2022/05/09 02:12:26;;;;;;;;;;;;;;;;;;6128851;23;19913;-55
2022/05/09 02:14:54;;;;;;;;;;;;;;;;;;6206217;23;20329;-54
2022/05/09 02:17:19;;;;;;;;;;;;;;;;;;6136140;23;19913;-55
2022/05/09 02:19:47;;;;;;;;;;;;;;;;;;6137648;23;20407;-55
2022/05/09 02:22:18;;;;;;;;;;;;;;;;;;6139001;23;19944;-55
2022/05/09 02:24:45;;;;;;;;;;;;;;;;;;6138712;23;20343;-55
2022/05/09 02:27:13;;;;;;;;;;;;;;;;;;6137575;23;19908;-56
2022/05/09 02:29:42;;;;;;;;;;;;;;;;;;6138496;23;20243;-56
2022/05/09 02:32:07;;;;;;;;;;;;;;;;;;6127757;23;19913;-55
2022/05/09 02:34:35;;;;;;;;;;;;;;;;;;6230526;22;19921;-55
2022/05/09 02:37:00;;;;;;;;;;;;;;;;;;6130766;23;19913;-56
2022/05/09 02:39:28;;;;;;;;;;;;;;;;;;6233381;22;19908;-57
2022/05/09 02:41:53;;;;;;;;;;;;;;;;;;6231965;22;20128;-55
2022/05/09 02:44:21;;;;;;;;;;;;;;;;;;6207645;22;20015;-56
2022/05/09 02:46:47;;;;;;;;;;;;;;;;;;6129952;23;19913;-56
2022/05/09 02:49:18;;;;;;;;;;;;;;;;;;6139835;23;20015;-55
2022/05/09 02:51:48;;;;;;;;;;;;;;;;;;6243432;22;19912;-56
2022/05/09 02:54:16;;;;;;;;;;;;;;;;;;6138850;23;19917;-55
2022/05/09 02:56:41;;;;;;;;;;;;;;;;;;6130648;23;20314;-56
2022/05/09 02:59:06;;;;;;;;;;;;;;;;;;6208523;22;19917;-56
2022/05/09 03:01:32;;;;;;;;;;;;;;;;;;6235366;22;19967;-56
2022/05/09 03:06:44;;;;;;;;;;;;;;;;;;6130726;23;19944;-56
2022/05/09 03:09:09;;;;;;;;;;;;;;;;;;6126854;23;19908;-56
2022/05/09 03:11:34;;;;;;;;;;;;;;;;;;6140472;23;20433;-56
2022/05/09 03:14:00;;;;;;;;;;;;;;;;;;6232968;22;20382;-56
2022/05/09 03:16:26;;;;;;;;;;;;;;;;;;6233096;22;19920;-55
2022/05/09 03:18:54;;;;;;;;;;;;;;;;;;6231489;22;19909;-56
2022/05/09 03:21:21;;;;;;;;;;;;;;;;;;6241026;22;19920;-56
2022/05/09 03:23:50;;;;;;;;;;;;;;;;;;6232967;22;20307;-56
2022/05/09 03:26:15;;;;;;;;;;;;;;;;;;6233156;22;19912;-56
2022/05/09 03:28:40;;;;;;;;;;;;;;;;;;6130850;23;19913;-56
2022/05/09 03:31:06;;;;;;;;;;;;;;;;;;6234461;22;19909;-56
2022/05/09 03:33:33;;;;;;;;;;;;;;;;;;6239962;22;19916;-55
2022/05/09 03:35:59;;;;;;;;;;;;;;;;;;6242768;22;19920;-55
2022/05/09 03:38:24;;;;;;;;;;;;;;;;;;6232679;22;19916;-55
2022/05/09 03:40:49;;;;;;;;;;;;;;;;;;6129584;23;20396;-56
2022/05/09 03:43:18;;;;;;;;;;;;;;;;;;6232104;22;19920;-56
2022/05/09 03:45:43;;;;;;;;;;;;;;;;;;6206775;23;19939;-55
2022/05/09 03:48:11;;;;;;;;;;;;;;;;;;6139988;23;19982;-58
2022/05/09 03:50:38;;;;;;;;;;;;;;;;;;6233257;22;19909;-55
2022/05/09 03:53:06;;;;;;;;;;;;;;;;;;6131117;23;19924;-55
2022/05/09 03:55:33;;;;;;;;;;;;;;;;;;6232453;22;19920;-56
2022/05/09 03:58:03;;;;;;;;;;;;;;;;;;6140149;23;19912;-55
2022/05/09 04:00:28;;;;;;;;;;;;;;;;;;6131009;23;19912;-56
2022/05/09 04:02:56;;;;;;;;;;;;;;;;;;6243593;22;19948;-56
2022/05/09 04:05:21;;;;;;;;;;;;;;;;;;6232039;22;19920;-56
2022/05/09 04:07:46;;;;;;;;;;;;;;;;;;6232981;22;19917;-56
2022/05/09 04:10:12;;;;;;;;;;;;;;;;;;6129927;23;19913;-56
2022/05/09 04:12:40;;;;;;;;;;;;;;;;;;6242993;22;20325;-56
2022/05/09 04:17:52;;;;;;;;;;;;;;;;;;6130596;23;19973;-56
2022/05/09 04:20:36;;;;;;;;;;;;;;;;;;6129370;23;20755;-56
2022/05/09 04:23:01;;;;;;;;;;;;;;;;;;6232019;22;19917;-56
2022/05/09 04:25:32;;;;;;;;;;;;;;;;;;6140057;23;19913;-56
2022/05/09 04:28:00;;;;;;;;;;;;;;;;;;6240683;22;20325;-56
2022/05/09 04:30:26;;;;;;;;;;;;;;;;;;6140657;23;19940;-56
2022/05/09 04:32:51;;;;;;;;;;;;;;;;;;6232097;22;19916;-55
2022/05/09 04:35:22;;;;;;;;;;;;;;;;;;6231740;22;20421;-56
2022/05/09 04:37:48;;;;;;;;;;;;;;;;;;6242870;22;19924;-56
2022/05/09 04:40:13;;;;;;;;;;;;;;;;;;6233867;22;19909;-56
2022/05/09 04:42:38;;;;;;;;;;;;;;;;;;6231032;22;19931;-57
2022/05/09 04:45:04;;;;;;;;;;;;;;;;;;6231203;22;19923;-57
2022/05/09 04:47:32;;;;;;;;;;;;;;;;;;6138821;23;20086;-57
2022/05/09 04:49:58;;;;;;;;;;;;;;;;;;6129533;23;20435;-57
2022/05/09 04:52:23;;;;;;;;;;;;;;;;;;6129234;23;19923;-57
2022/05/09 04:54:48;;;;;;;;;;;;;;;;;;6129511;23;20687;-57
2022/05/09 04:57:14;;;;;;;;;;;;;;;;;;6231628;22;19985;-57
2022/05/09 04:59:42;;;;;;;;;;;;;;;;;;6233048;22;19912;-57
2022/05/09 05:02:07;;;;;;;;;;;;;;;;;;6243284;22;19919;-57
2022/05/09 05:04:32;;;;;;;;;;;;;;;;;;6128071;23;19917;-57
2022/05/09 05:06:57;;;;;;;;;;;;;;;;;;6128380;23;19920;-58
2022/05/09 05:09:22;;;;;;;;;;;;;;;;;;6128232;23;19916;-57
2022/05/09 05:11:50;;;;;;;;;;;;;;;;;;6238734;22;19924;-57
2022/05/09 05:14:16;;;;;;;;;;;;;;;;;;6130633;23;19917;-57
2022/05/09 05:17:01;;;;;;;;;;;;;;;;;;6143207;23;20292;-57
2022/05/09 05:19:27;;;;;;;;;;;;;;;;;;6229498;22;19939;-58
2022/05/09 05:21:52;;;;;;;;;;;;;;;;;;6233857;22;20402;-57
2022/05/09 05:24:18;;;;;;;;;;;;;;;;;;6128725;23;19912;-57
2022/05/09 05:26:46;;;;;;;;;;;;;;;;;;6139782;23;19940;-58
2022/05/09 05:29:15;;;;;;;;;;;;;;;;;;6231114;22;19948;-58
2022/05/09 05:31:40;;;;;;;;;;;;;;;;;;6130883;22;20635;-57
2022/05/09 05:34:08;;;;;;;;;;;;;;;;;;6138519;23;19921;-58
2022/05/09 05:36:34;;;;;;;;;;;;;;;;;;6233746;22;19915;-57
2022/05/09 05:39:03;;;;;;;;;;;;;;;;;;6234309;22;20001;-57
2022/05/09 05:41:32;;;;;;;;;;;;;;;;;;6143869;23;20005;-57
2022/05/09 05:44:00;;;;;;;;;;;;;;;;;;6209245;22;19908;-58
2022/05/09 05:46:26;;;;;;;;;;;;;;;;;;6233313;22;19919;-58
2022/05/09 05:48:51;;;;;;;;;;;;;;;;;;6130432;23;20509;-58
2022/05/09 05:51:18;;;;;;;;;;;;;;;;;;6132781;23;19917;-59
2022/05/09 05:53:46;;;;;;;;;;;;;;;;;;6131450;23;19924;-58
2022/05/09 05:56:14;;;;;;;;;;;;;;;;;;6233168;22;19909;-58
2022/05/09 05:58:40;;;;;;;;;;;;;;;;;;6232160;22;19974;-59
2022/05/09 06:01:07;;;;;;;;;;;;;;;;;;6239477;22;19932;-58
2022/05/09 06:03:32;;;;;;;;;;;;;;;;;;6138416;23;20217;-59
2022/05/09 06:05:58;;;;;;;;;;;;;;;;;;6129128;23;19912;-58
2022/05/09 06:08:26;;;;;;;;;;;;;;;;;;6231497;22;19920;-59
2022/05/09 06:10:54;;;;;;;;;;;;;;;;;;6234910;22;19916;-59
2022/05/09 06:13:19;;;;;;;;;;;;;;;;;;6209035;23;20120;-58
2022/05/09 06:15:45;;;;;;;;;;;;;;;;;;6140500;22;20008;-59
2022/05/09 06:18:12;;;;;;;;;;;;;;;;;;6129752;23;19919;-57
2022/05/09 06:20:40;;;;;;;;;;;;;;;;;;6140700;23;20007;-58
2022/05/09 06:23:08;;;;;;;;;;;;;;;;;;6141732;23;20308;-58
2022/05/09 06:25:40;;;;;;;;;;;;;;;;;;6233952;22;19947;-57
2022/05/09 06:28:06;;;;;;;;;;;;;;;;;;6207562;23;20035;-57
2022/05/09 06:30:31;;;;;;;;;;;;;;;;;;6140239;23;20428;-57
2022/05/09 06:32:56;;;;;;;;;;;;;;;;;;6251783;22;20628;-59
2022/05/09 06:35:23;;;;;;;;;;;;;;;;;;6253529;22;19929;-59
2022/05/09 06:37:49;;;;;;;;;;;;;;;;;;6255915;22;20366;-59
2022/05/09 06:40:14;;;;;;;;;;;;;;;;;;6253771;22;20690;-59
2022/05/09 06:42:41;;;;;;;;;;;;;;;;;;6266179;22;20670;-59
2022/05/09 06:45:07;;;;;;;;;;;;;;;;;;6253347;22;20359;-57
2022/05/09 06:47:35;;;;;;;;;;;;;;;;;;6255273;22;19933;-57
2022/05/09 06:50:00;;;;;;;;;;;;;;;;;;6265539;22;20705;-59
2022/05/09 06:52:25;;;;;;;;;;;;;;;;;;6257382;22;19908;-58
2022/05/09 06:54:51;;;;;;;;;;;;;;;;;;6269672;22;19988;-59
2022/05/09 06:57:18;;;;;;;;;;;;;;;;;;6255135;22;19911;-58
2022/05/09 06:59:49;;;;;;;;;;;;;;;;;;6263793;22;19911;-58
2022/05/09 07:02:16;;;;;;;;;;;;;;;;;;6254372;22;20005;-58
2022/05/09 07:04:42;;;;;;;;;;;;;;;;;;6256947;22;19972;-59
2022/05/09 07:07:07;;;;;;;;;;;;;;;;;;6267712;22;19919;-59
2022/05/09 07:09:33;;;;;;;;;;;;;;;;;;6258149;22;19907;-59
2022/05/09 07:11:58;;;;;;;;;;;;;;;;;;6269289;22;19923;-59
2022/05/09 07:14:24;;;;;;;;;;;;;;;;;;6255956;22;19923;-59
2022/05/09 07:16:49;;;;;;;;;;;;;;;;;;6255904;22;19911;-59
2022/05/09 07:19:16;;;;;;;;;;;;;;;;;;6255855;22;19916;-61
2022/05/09 07:21:46;;;;;;;;;;;;;;;;;;6259320;22;19961;-59
2022/05/09 07:24:16;;;;;;;;;;;;;;;;;;6256105;22;19916;-57
2022/05/09 07:26:44;;;;;;;;;;;;;;;;;;6241777;22;19923;-59
2022/05/09 07:29:09;;;;;;;;;;;;;;;;;;6268383;22;20240;-58
2022/05/09 07:31:37;;;;;;;;;;;;;;;;;;6258309;22;20014;-58
2022/05/09 07:34:02;;;;;;;;;;;;;;;;;;6101025;23;20326;-58
2022/05/09 07:36:28;;;;;;;;;;;;;;;;;;6079081;23;19909;-58
2022/05/09 07:38:56;;;;;;;;;;;;;;;;;;6076742;23;19909;-59
2022/05/09 07:41:24;;;;;;;;;;;;;;;;;;6114192;23;20012;-59
2022/05/09 07:43:50;;;;;;;;;;;;;;;;;;6078177;23;20385;-58
2022/05/09 07:46:15;;;;;;;;;;;;;;;;;;6103985;23;19963;-58
2022/05/09 07:48:41;;;;;;;;;;;;;;;;;;6078106;23;19913;-59
2022/05/09 07:51:06;;;;;;;;;;;;;;;;;;6100731;23;19948;-59
2022/05/09 07:53:31;;;;;;;;;;;;;;;;;;6078276;23;19937;-58
2022/05/09 07:55:57;;;;;;;;;;;;;;;;;;6104097;23;19920;-58
2022/05/09 07:58:23;;;;;;;;;;;;;;;;;;6077227;23;20238;-59
2022/05/09 08:00:50;;;;;;;;;;;;;;;;;;6102965;23;19913;-59
2022/05/09 08:03:16;;;;;;;;;;;;;;;;;;6103210;23;19919;-59
2022/05/09 08:05:42;;;;;;;;;;;;;;;;;;6102812;23;19928;-59
2022/05/09 08:11:25;;;;;;;;;;;;;;;;;;6113800;23;19919;-59
2022/05/09 08:13:52;;;;;;;;;;;;;;;;;;6088183;23;19913;-59
2022/05/09 08:16:20;;;;;;;;;;;;;;;;;;6103708;23;19919;-59
2022/05/09 08:18:46;;;;;;;;;;;;;;;;;;6102387;23;20341;-59
2022/05/09 08:21:13;;;;;;;;;;;;;;;;;;6077610;23;19924;-60
2022/05/09 08:23:38;;;;;;;;;;;;;;;;;;6076272;23;20259;-59
2022/05/09 08:26:04;;;;;;;;;;;;;;;;;;6114272;23;19987;-60
2022/05/09 08:28:31;;;;;;;;;;;;;;;;;;6102815;23;19913;-60
2022/05/09 08:30:59;;;;;;;;;;;;;;;;;;6104323;23;20702;-60
2022/05/09 08:33:25;;;;;;;;;;;;;;;;;;6207482;22;20307;-60
2022/05/09 08:35:50;;;;;;;;;;;;;;;;;;6258255;22;19942;-59
2022/05/09 08:41:32;;;;;;;;;;;;;;;;;;6267980;22;19941;-60
2022/05/09 08:43:59;;;;;;;;;;;;;;;;;;6255744;22;19923;-60
2022/05/09 08:46:25;;;;;;;;;;;;;;;;;;6255929;22;20395;-59
2022/05/09 08:48:51;;;;;;;;;;;;;;;;;;6255815;22;20236;-59
2022/05/09 08:51:16;;;;;;;;;;;;;;;;;;6255661;22;19915;-60
2022/05/09 08:53:42;;;;;;;;;;;;;;;;;;6255020;22;19907;-60
2022/05/09 08:56:07;;;;;;;;;;;;;;;;;;6257842;22;19918;-60
2022/05/09 08:58:37;;;;;;;;;;;;;;;;;;6254895;22;19941;-60
2022/05/09 09:01:03;;;;;;;;;;;;;;;;;;6257559;22;19946;-60
2022/05/09 09:03:29;;;;;;;;;;;;;;;;;;6256474;22;20375;-60
2022/05/09 09:05:57;;;;;;;;;;;;;;;;;;6267975;22;20305;-60
2022/05/09 09:08:22;;;;;;;;;;;;;;;;;;6267924;22;19972;-60
2022/05/09 09:10:50;;;;;;;;;;;;;;;;;;6256354;22;19911;-60
2022/05/09 09:13:19;;;;;;;;;;;;;;;;;;6256409;22;19913;-60
2022/05/09 09:15:45;;;;;;;;;;;;;;;;;;6256499;22;20192;-60
2022/05/09 09:18:10;;;;;;;;;;;;;;;;;;6256676;22;19914;-60
2022/05/09 09:20:37;;;;;;;;;;;;;;;;;;6255360;22;19911;-61
2022/05/09 09:23:02;;;;;;;;;;;;;;;;;;6255604;22;20436;-60
2022/05/09 09:25:31;;;;;;;;;;;;;;;;;;6255894;22;20010;-61
2022/05/09 09:27:58;;;;;;;;;;;;;;;;;;6254861;22;19911;-60
2022/05/09 09:30:27;;;;;;;;;;;;;;;;;;6266985;22;19907;-60
2022/05/09 09:32:54;;;;;;;;;;;;;;;;;;6231072;22;19968;-61
2022/05/09 09:35:24;;;;;;;;;;;;;;;;;;6266523;22;19911;-61
2022/05/09 09:37:51;;;;;;;;;;;;;;;;;;6256046;22;19922;-61
2022/05/09 09:40:20;;;;;;;;;;;;;;;;;;6255647;22;20487;-62
2022/05/09 09:42:47;;;;;;;;;;;;;;;;;;6256422;22;19919;-62
2022/05/09 09:45:15;;;;;;;;;;;;;;;;;;6267993;22;19920;-62
2022/05/09 09:47:40;;;;;;;;;;;;;;;;;;6229591;22;19916;-61
2022/05/09 09:50:05;;;;;;;;;;;;;;;;;;6265354;22;19919;-61
2022/05/09 09:52:31;;;;;;;;;;;;;;;;;;6254772;22;20563;-61
2022/05/09 09:54:56;;;;;;;;;;;;;;;;;;6257015;22;19913;-61
2022/05/09 09:57:22;;;;;;;;;;;;;;;;;;6254431;22;19911;-61
2022/05/09 09:59:50;;;;;;;;;;;;;;;;;;6255722;22;19907;-60
2022/05/09 10:02:19;;;;;;;;;;;;;;;;;;6265926;22;19911;-63
2022/05/09 10:04:49;;;;;;;;;;;;;;;;;;6229823;22;20203;-61
2022/05/09 10:07:16;;;;;;;;;;;;;;;;;;6257688;22;19907;-62
2022/05/09 10:09:44;;;;;;;;;;;;;;;;;;6267640;22;19990;-61
2022/05/09 10:12:11;;;;;;;;;;;;;;;;;;6264004;22;19911;-61
2022/05/09 10:14:36;;;;;;;;;;;;;;;;;;6255873;22;20366;-61
2022/05/09 10:17:04;;;;;;;;;;;;;;;;;;6229627;22;19994;-61
2022/05/09 10:19:29;;;;;;;;;;;;;;;;;;6252725;22;19958;-61
2022/05/09 10:24:51;;;;;;;;;;;;;;;;;;6255824;22;20014;-62
2022/05/09 10:27:16;;;;;;;;;;;;;;;;;;6253048;22;19960;-61
2022/05/09 10:29:43;;;;;;;;;;;;;;;;;;6251863;22;19923;-61
2022/05/09 10:32:11;;;;;;;;;;;;;;;;;;6251875;22;19915;-61
2022/05/09 10:34:36;;;;;;;;;;;;;;;;;;6255406;22;19969;-62
2022/05/09 10:37:02;;;;;;;;;;;;;;;;;;6256223;22;19916;-61
2022/05/09 10:39:28;;;;;;;;;;;;;;;;;;6256983;22;20739;-61
2022/05/09 10:41:55;;;;;;;;;;;;;;;;;;6255038;22;19918;-61
2022/05/09 10:44:28;;;;;;;;;;;;;;;;;;6255780;22;20366;-61
2022/05/09 10:46:54;;;;;;;;;;;;;;;;;;6257535;22;19982;-60
2022/05/09 10:49:21;;;;;;;;;;;;;;;;;;6225485;22;20205;-60
2022/05/09 10:51:46;;;;;;;;;;;;;;;;;;6263312;22;19961;-60
2022/05/09 10:54:12;;;;;;;;;;;;;;;;;;6227907;22;19911;-60
2022/05/09 10:56:37;;;;;;;;;;;;;;;;;;6258815;22;19987;-60
2022/05/09 10:59:05;;;;;;;;;;;;;;;;;;6258671;22;20093;-60
2022/05/09 11:01:33;;;;;;;;;;;;;;;;;;6255134;22;19934;-60
2022/05/09 11:04:02;;;;;;;;;;;;;;;;;;6266370;22;19911;-60
2022/05/09 11:06:30;;;;;;;;;;;;;;;;;;6253922;22;19922;-61
2022/05/09 11:08:58;;;;;;;;;;;;;;;;;;6230644;22;19915;-60
2022/05/09 11:11:25;;;;;;;;;;;;;;;;;;6254970;22;20017;-60
2022/05/09 11:13:50;;;;;;;;;;;;;;;;;;6230540;22;19998;-60
2022/05/09 11:16:15;;;;;;;;;;;;;;;;;;6257280;22;19982;-60
2022/05/09 11:18:43;;;;;;;;;;;;;;;;;;6229257;22;20647;-61
2022/05/09 11:21:08;;;;;;;;;;;;;;;;;;6231596;22;19911;-62
2022/05/09 11:23:33;;;;;;;;;;;;;;;;;;6231378;22;19964;-63
2022/05/09 11:26:01;;;;;;;;;;;;;;;;;;6258475;22;19934;-61
2022/05/09 11:28:29;;;;;;;;;;;;;;;;;;6257309;22;20026;-63
2022/05/09 11:30:55;;;;;;;;;;;;;;;;;;6232398;22;19911;-61
2022/05/09 11:33:22;;;;;;;;;;;;;;;;;;6256719;22;19973;-61
2022/05/09 11:39:04;;;;;;;;;;;;;;;;;;6268612;22;20021;-61
2022/05/09 11:44:48;;;;;;;;;;;;;;;;;;6268518;22;19922;-62
2022/05/09 11:47:16;;;;;;;;;;;;;;;;;;6256208;22;20406;-62
2022/05/09 11:49:44;;;;;;;;;;;;;;;;;;6255482;22;19908;-61
2022/05/09 11:52:09;;;;;;;;;;;;;;;;;;6256660;22;19922;-61
2022/05/09 11:54:34;;;;;;;;;;;;;;;;;;6258083;22;19962;-61
2022/05/09 11:57:02;;;;;;;;;;;;;;;;;;6267164;22;19911;-61
2022/05/09 11:59:29;;;;;;;;;;;;;;;;;;6258249;22;20684;-62
2022/05/09 12:01:57;;;;;;;;;;;;;;;;;;6266011;22;20590;-62
2022/05/09 12:04:23;;;;;;;;;;;;;;;;;;6256500;22;20014;-61
2022/05/09 12:06:48;;;;;;;;;;;;;;;;;;6256185;22;20002;-61
2022/05/09 12:09:16;;;;;;;;;;;;;;;;;;6258028;22;19918;-63
2022/05/09 12:14:58;;;;;;;;;;;;;;;;;;6269358;22;19918;-61
2022/05/09 12:17:25;;;;;;;;;;;;;;;;;;6256862;22;20536;-61
2022/05/09 12:19:51;;;;;;;;;;;;;;;;;;6254472;22;19945;-63
2022/05/09 12:22:18;;;;;;;;;;;;;;;;;;6257016;22;20576;-61
2022/05/09 12:24:44;;;;;;;;;;;;;;;;;;6230814;22;19980;-61
2022/05/09 12:27:12;;;;;;;;;;;;;;;;;;6266673;22;19908;-63
2022/05/09 12:29:42;;;;;;;;;;;;;;;;;;6255905;22;19923;-62
2022/05/09 12:32:07;;;;;;;;;;;;;;;;;;6241693;22;19924;-61
2022/05/09 12:34:33;;;;;;;;;;;;;;;;;;6219007;23;19917;-60
2022/05/09 12:37:01;;;;;;;;;;;;;;;;;;6131708;23;20600;-61
2022/05/09 12:39:28;;;;;;;;;;;;;;;;;;6131159;23;20279;-61
2022/05/09 12:41:55;;;;;;;;;;;;;;;;;;6232115;22;20038;-61
2022/05/09 12:44:25;;;;;;;;;;;;;;;;;;6142079;23;19912;-61
2022/05/09 12:46:53;;;;;;;;;;;;;;;;;;6236078;22;19924;-61
2022/05/09 12:49:26;;;;;;;;;;;;;;;;;;6234216;22;19955;-60
2022/05/09 12:51:51;;;;;;;;;;;;;;;;;;6234208;22;20050;-60
2022/05/09 12:54:19;;;;;;;;;;;;;;;;;;6131616;23;20028;-60
2022/05/09 12:56:47;;;;;;;;;;;;;;;;;;6141365;23;19912;-60
2022/05/09 12:59:16;;;;;;;;;;;;;;;;;;6234444;22;20386;-60
2022/05/09 13:01:42;;;;;;;;;;;;;;;;;;6235421;22;19984;-60
2022/05/09 13:04:09;;;;;;;;;;;;;;;;;;6233658;22;19916;-60
2022/05/09 13:06:38;;;;;;;;;;;;;;;;;;6235199;22;20011;-60
2022/05/09 13:09:05;;;;;;;;;;;;;;;;;;6242220;22;19912;-60
2022/05/09 13:11:33;;;;;;;;;;;;;;;;;;6142981;23;20603;-61
2022/05/09 13:13:58;;;;;;;;;;;;;;;;;;6233716;22;19909;-60
2022/05/09 13:16:23;;;;;;;;;;;;;;;;;;6142139;23;19919;-62
2022/05/09 13:18:49;;;;;;;;;;;;;;;;;;6140262;23;20062;-62
2022/05/09 13:21:16;;;;;;;;;;;;;;;;;;6235023;22;19913;-63
2022/05/09 13:23:42;;;;;;;;;;;;;;;;;;6141232;23;19913;-61
2022/05/09 13:26:07;;;;;;;;;;;;;;;;;;6233724;22;20046;-62
2022/05/09 13:28:32;;;;;;;;;;;;;;;;;;6246667;22;19966;-61
2022/05/09 13:31:00;;;;;;;;;;;;;;;;;;6143163;23;19912;-60
2022/05/09 13:33:28;;;;;;;;;;;;;;;;;;6132299;23;20409;-62
2022/05/09 13:35:53;;;;;;;;;;;;;;;;;;6141617;23;20404;-62
2022/05/09 13:38:26;;;;;;;;;;;;;;;;;;6141746;23;19987;-60
2022/05/09 13:40:51;;;;;;;;;;;;;;;;;;6142553;23;20376;-60
2022/05/09 13:43:16;;;;;;;;;;;;;;;;;;6142054;23;19951;-60
2022/05/09 13:45:44;;;;;;;;;;;;;;;;;;6231962;22;19917;-60
2022/05/09 13:48:10;;;;;;;;;;;;;;;;;;6232655;22;19962;-60
2022/05/09 13:50:35;;;;;;;;;;;;;;;;;;6230875;22;20033;-60
2022/05/09 13:53:00;;;;;;;;;;;;;;;;;;6234861;22;20012;-60
2022/05/09 13:55:26;;;;;;;;;;;;;;;;;;6244602;22;20308;-61
2022/05/09 13:57:51;;;;;;;;;;;;;;;;;;6209615;23;19947;-60
2022/05/09 14:00:19;;;;;;;;;;;;;;;;;;6234752;22;19913;-60
2022/05/09 14:02:44;;;;;;;;;;;;;;;;;;6141796;23;19920;-61
2022/05/09 14:05:09;;;;;;;;;;;;;;;;;;6141228;23;19913;-60
2022/05/09 14:07:41;;;;;;;;;;;;;;;;;;6232600;22;19920;-61
2022/05/09 14:10:09;;;;;;;;;;;;;;;;;;6235017;22;20463;-60
2022/05/09 14:12:35;;;;;;;;;;;;;;;;;;6235740;22;19915;-60
2022/05/09 14:15:03;;;;;;;;;;;;;;;;;;6143015;23;19913;-59
2022/05/09 14:17:28;;;;;;;;;;;;;;;;;;6130436;22;19913;-59
2022/05/09 14:19:58;;;;;;;;;;;;;;;;;;6231000;22;19979;-60
2022/05/09 14:22:33;;;;;;;;;;;;;;;;;;6227805;22;20007;-59
2022/05/09 14:30:29;;;;;;;;;;;;;;;;;;6142894;23;19912;-59
2022/05/09 14:32:54;;;;;;;;;;;;;;;;;;6142159;23;19935;-60
2022/05/09 14:35:25;;;;;;;;;;;;;;;;;;6234834;22;19912;-59
2022/05/09 14:37:50;;;;;;;;;;;;;;;;;;6142420;23;20224;-59
2022/05/09 14:40:18;;;;;;;;;;;;;;;;;;6235438;22;19912;-59
2022/05/09 14:42:44;;;;;;;;;;;;;;;;;;6246515;22;20249;-59
2022/05/09 14:45:13;;;;;;;;;;;;;;;;;;6243677;22;19921;-59
2022/05/09 14:47:41;;;;;;;;;;;;;;;;;;6243321;22;19913;-59
2022/05/09 14:50:10;;;;;;;;;;;;;;;;;;6234328;22;20415;-58
2022/05/09 14:52:42;;;;;;;;;;;;;;;;;;6211276;22;20480;-59
2022/05/09 14:57:51;;;;;;;;;;;;;;;;;;6133099;23;19919;-59
2022/05/09 15:00:17;;;;;;;;;;;;;;;;;;6142612;23;19912;-60
2022/05/09 15:02:42;;;;;;;;;;;;;;;;;;6244662;22;19951;-60
2022/05/09 15:05:08;;;;;;;;;;;;;;;;;;6141803;23;19999;-59
2022/05/09 15:07:33;;;;;;;;;;;;;;;;;;6134266;22;19971;-59
2022/05/09 15:10:01;;;;;;;;;;;;;;;;;;6143379;23;19916;-59
2022/05/09 15:12:29;;;;;;;;;;;;;;;;;;6237387;22;20443;-59
2022/05/09 15:14:54;;;;;;;;;;;;;;;;;;6131491;22;19919;-59
2022/05/09 15:17:22;;;;;;;;;;;;;;;;;;6235085;22;20339;-59
2022/05/09 15:19:47;;;;;;;;;;;;;;;;;;6140198;23;19912;-58
2022/05/09 15:22:19;;;;;;;;;;;;;;;;;;6129837;23;19989;-59
2022/05/09 15:24:47;;;;;;;;;;;;;;;;;;6238945;22;19917;-60
2022/05/09 15:27:13;;;;;;;;;;;;;;;;;;6229998;22;19915;-59
2022/05/09 15:29:38;;;;;;;;;;;;;;;;;;6139017;23;20016;-59
2022/05/09 15:32:06;;;;;;;;;;;;;;;;;;6206104;23;19955;-58
2022/05/09 15:34:32;;;;;;;;;;;;;;;;;;6229507;22;19927;-58
2022/05/09 15:36:57;;;;;;;;;;;;;;;;;;6138972;23;19908;-59
2022/05/09 15:39:23;;;;;;;;;;;;;;;;;;6129034;22;20228;-58
2022/05/09 15:41:50;;;;;;;;;;;;;;;;;;6234757;22;19935;-58
2022/05/09 15:44:16;;;;;;;;;;;;;;;;;;6142274;23;19927;-58
2022/05/09 15:46:45;;;;;;;;;;;;;;;;;;6242287;22;19909;-58
2022/05/09 15:49:10;;;;;;;;;;;;;;;;;;6231511;22;19965;-58
2022/05/09 15:51:37;;;;;;;;;;;;;;;;;;6140540;23;20433;-58
2022/05/09 15:54:02;;;;;;;;;;;;;;;;;;6243701;22;19977;-59
2022/05/09 15:56:31;;;;;;;;;;;;;;;;;;6133062;23;19919;-59
2022/05/09 15:58:56;;;;;;;;;;;;;;;;;;6232927;22;19920;-59
2022/05/09 16:01:24;;;;;;;;;;;;;;;;;;6139915;23;20608;-58
2022/05/09 16:03:49;;;;;;;;;;;;;;;;;;6127554;23;20003;-58
2022/05/09 16:11:47;;;;;;;;;;;;;;;;;;6231550;22;19940;-59
2022/05/09 16:14:14;;;;;;;;;;;;;;;;;;6204547;23;20358;-58
2022/05/09 16:16:40;;;;;;;;;;;;;;;;;;6136282;23;19913;-59
2022/05/09 16:19:05;;;;;;;;;;;;;;;;;;6229290;22;20015;-59
2022/05/09 16:21:31;;;;;;;;;;;;;;;;;;6140554;23;19980;-59
2022/05/09 16:23:56;;;;;;;;;;;;;;;;;;6232119;22;20016;-59
2022/05/09 16:26:25;;;;;;;;;;;;;;;;;;6138635;23;19983;-59
2022/05/09 16:28:53;;;;;;;;;;;;;;;;;;6240952;22;19932;-59
2022/05/09 16:31:20;;;;;;;;;;;;;;;;;;6138402;23;19955;-59
2022/05/09 16:33:48;;;;;;;;;;;;;;;;;;6230722;22;20110;-59
2022/05/09 16:36:14;;;;;;;;;;;;;;;;;;6127389;22;19936;-59
2022/05/09 16:38:41;;;;;;;;;;;;;;;;;;6239938;22;19912;-58
2022/05/09 16:41:08;;;;;;;;;;;;;;;;;;6128771;23;20291;-58
2022/05/09 16:43:36;;;;;;;;;;;;;;;;;;6139813;23;19923;-58
2022/05/09 16:46:02;;;;;;;;;;;;;;;;;;6229381;22;20444;-58
2022/05/09 16:48:29;;;;;;;;;;;;;;;;;;6135457;23;19912;-59
2022/05/09 16:50:55;;;;;;;;;;;;;;;;;;6137950;23;19977;-59
2022/05/09 16:53:21;;;;;;;;;;;;;;;;;;6127379;22;20051;-59
2022/05/09 16:55:52;;;;;;;;;;;;;;;;;;6129748;23;19908;-59
2022/05/09 16:58:20;;;;;;;;;;;;;;;;;;6229297;22;19913;-59
2022/05/09 17:00:48;;;;;;;;;;;;;;;;;;6137143;23;19912;-59
2022/05/09 17:03:14;;;;;;;;;;;;;;;;;;6231281;22;19920;-58
2022/05/09 17:05:42;;;;;;;;;;;;;;;;;;6136643;23;19965;-58
2022/05/09 17:08:08;;;;;;;;;;;;;;;;;;6231392;22;19943;-58
2022/05/09 17:10:33;;;;;;;;;;;;;;;;;;6232373;22;20415;-58
2022/05/09 17:12:59;;;;;;;;;;;;;;;;;;6140138;23;20005;-59
2022/05/09 17:15:26;;;;;;;;;;;;;;;;;;6231908;22;19909;-58
2022/05/09 17:17:54;;;;;;;;;;;;;;;;;;6239395;22;19920;-58
2022/05/09 17:20:19;;;;;;;;;;;;;;;;;;6128950;23;20003;-58
2022/05/09 17:22:51;;;;;;;;;;;;;;;;;;6231295;22;20438;-59
2022/05/09 17:25:21;;;;;;;;;;;;;;;;;;6229091;22;19928;-59
2022/05/09 17:27:49;;;;;;;;;;;;;;;;;;6228486;22;19996;-59